Time;durP1;ratioP1;P1;durP2;ratioP2;P2;SDS_P1;SDS_P2;PMS_P1;PMS_P2;Temp;Humidity;BMP_temperature;BMP_pressure;BME280_temperature;BME280_humidity;BME280_pressure;Samples;Min_cycle;Max_cycle;Signal;HPM_P1;HPM_P2
2023/05/27 00:01:49;;;;;;;12.98;3.30;;;36.40;24.40;;;;;;4888096;29;20066;-68
2023/05/27 00:04:15;;;;;;;65.95;5.55;;;36.30;24.20;;;;;;4886071;29;20542;-69
2023/05/27 00:06:42;;;;;;;19.60;3.42;;;36.40;24.40;;;;;;4887039;29;20095;-68
2023/05/27 00:09:09;;;;;;;12.77;3.03;;;36.20;24.10;;;;;;4884049;29;20080;-67
2023/05/27 00:11:36;;;;;;;18.95;3.38;;;36.00;24.60;;;;;;4888994;29;20046;-68
2023/05/27 00:14:02;;;;;;;18.60;3.00;;;36.00;24.70;;;;;;4884410;29;20080;-69
2023/05/27 00:16:29;;;;;;;35.00;3.53;;;35.80;24.80;;;;;;4892957;29;20041;-68
2023/05/27 00:18:55;;;;;;;19.13;3.05;;;35.70;25.00;;;;;;4887022;29;20050;-66
2023/05/27 00:21:21;;;;;;;67.93;5.43;;;35.50;24.70;;;;;;4884611;29;20087;-68
2023/05/27 00:23:51;;;;;;;37.67;4.30;;;35.30;24.80;;;;;;4889335;29;20039;-66
2023/05/27 00:26:17;;;;;;;11.43;2.70;;;35.30;24.90;;;;;;4888029;29;20064;-65
2023/05/27 00:28:44;;;;;;;8.98;2.50;;;35.20;24.90;;;;;;4889059;29;20379;-65
2023/05/27 00:31:10;;;;;;;15.05;2.70;;;35.00;24.70;;;;;;4890159;29;20129;-69
2023/05/27 00:33:37;;;;;;;13.60;2.67;;;35.00;24.80;;;;;;4888984;29;20049;-66
2023/05/27 00:36:04;;;;;;;12.13;2.63;;;35.10;24.80;;;;;;4887336;29;20046;-65
2023/05/27 00:38:30;;;;;;;5.70;2.30;;;35.10;23.80;;;;;;4886448;29;20095;-67
2023/05/27 00:40:57;;;;;;;12.85;2.80;;;34.90;23.00;;;;;;4889121;29;20113;-66
2023/05/27 00:43:24;;;;;;;21.27;2.85;;;35.10;22.90;;;;;;4889885;29;20048;-68
2023/05/27 00:45:50;;;;;;;31.73;3.42;;;35.00;22.90;;;;;;4889369;29;20077;-70
2023/05/27 00:48:17;;;;;;;31.40;3.95;;;34.90;24.00;;;;;;4887750;29;20138;-69
2023/05/27 00:50:43;;;;;;;25.52;3.72;;;34.90;24.50;;;;;;4890765;29;20084;-71
2023/05/27 00:53:10;;;;;;;28.50;3.78;;;34.60;24.20;;;;;;4889126;29;20095;-65
2023/05/27 00:55:36;;;;;;;35.40;4.78;;;34.50;24.00;;;;;;4887446;29;20417;-67
2023/05/27 00:58:04;;;;;;;37.47;3.97;;;34.30;23.70;;;;;;4889078;29;20063;-64
2023/05/27 01:00:31;;;;;;;24.70;3.17;;;34.20;23.70;;;;;;4887951;29;20074;-64
2023/05/27 01:02:58;;;;;;;19.58;3.03;;;34.00;23.70;;;;;;4886783;29;20050;-64
2023/05/27 01:05:24;;;;;;;45.80;3.78;;;33.80;23.50;;;;;;4887494;29;20052;-61
2023/05/27 01:08:00;;;;;;;63.63;5.00;;;33.60;24.10;;;;;;4888039;29;20047;-66
2023/05/27 01:10:48;;;;;;;55.90;6.03;;;33.40;25.00;;;;;;4886570;29;20114;-67
2023/05/27 01:13:33;;;;;;;38.40;4.30;;;33.40;24.90;;;;;;4886912;29;20060;-62
2023/05/27 01:16:02;;;;;;;34.20;3.92;;;33.10;24.50;;;;;;4887251;29;20554;-65
2023/05/27 01:18:31;;;;;;;29.63;4.53;;;33.10;25.00;;;;;;4890332;29;20110;-64
2023/05/27 01:21:05;;;;;;;17.67;4.50;;;33.10;25.30;;;;;;4890428;29;20054;-65
2023/05/27 01:23:32;;;;;;;20.92;4.20;;;33.10;25.90;;;;;;4890827;29;20115;-66
2023/05/27 01:26:00;;;;;;;23.50;3.72;;;33.00;25.90;;;;;;4891004;29;20158;-65
2023/05/27 01:28:26;;;;;;;24.23;4.03;;;32.90;24.70;;;;;;4891816;29;20078;-61
2023/05/27 01:30:58;;;;;;;18.70;3.20;;;32.70;24.70;;;;;;4891451;29;20551;-64
2023/05/27 01:33:30;;;;;;;21.85;3.90;;;32.60;25.50;;;;;;4892888;29;20074;-65
2023/05/27 01:36:03;;;;;;;28.38;3.72;;;32.50;25.80;;;;;;4891680;29;20072;-63
2023/05/27 01:38:32;;;;;;;36.92;13.30;;;32.50;26.00;;;;;;4890239;29;20119;-62
2023/05/27 01:40:59;;;;;;;33.15;4.15;;;32.60;26.30;;;;;;4889450;29;20401;-63
2023/05/27 01:43:26;;;;;;;18.10;3.67;;;32.70;26.10;;;;;;4893675;29;20171;-67
2023/05/27 01:45:53;;;;;;;16.48;3.95;;;32.80;26.30;;;;;;4890537;29;20069;-70
2023/05/27 01:48:19;;;;;;;37.33;4.05;;;33.30;26.20;;;;;;4891986;29;20411;-67
2023/05/27 01:50:46;;;;;;;24.05;3.70;;;33.40;26.30;;;;;;4890442;29;20137;-66
2023/05/27 01:53:12;;;;;;;45.42;4.15;;;32.90;26.50;;;;;;4892752;29;20074;-67
2023/05/27 01:55:39;;;;;;;41.72;4.55;;;32.60;27.00;;;;;;4892512;29;20583;-65
2023/05/27 01:58:06;;;;;;;22.23;3.53;;;32.10;27.50;;;;;;4890942;29;20086;-63
2023/05/27 02:00:32;;;;;;;19.52;3.20;;;31.80;28.00;;;;;;4891108;29;20086;-64
2023/05/27 02:02:58;;;;;;;25.02;3.75;;;31.50;27.50;;;;;;4894572;29;20138;-63
2023/05/27 02:05:25;;;;;;;21.70;3.67;;;31.30;27.70;;;;;;4891829;29;20071;-64
2023/05/27 02:07:51;;;;;;;19.63;3.78;;;31.10;28.10;;;;;;4886168;29;20072;-64
2023/05/27 02:10:18;;;;;;;29.77;4.35;;;30.90;27.70;;;;;;4889898;29;20529;-69
2023/05/27 02:12:44;;;;;;;13.88;3.15;;;30.80;27.80;;;;;;4887100;29;20066;-62
2023/05/27 02:15:11;;;;;;;15.55;2.72;;;30.80;27.60;;;;;;4888977;29;20076;-64
2023/05/27 02:17:38;;;;;;;16.63;3.42;;;30.70;27.80;;;;;;4892196;29;21807;-65
2023/05/27 02:20:05;;;;;;;31.50;4.30;;;30.50;28.00;;;;;;4891735;29;20119;-64
2023/05/27 02:22:32;;;;;;;67.57;4.97;;;30.30;27.90;;;;;;4889051;29;20206;-64
2023/05/27 02:24:58;;;;;;;21.90;3.42;;;30.20;28.30;;;;;;4889993;29;20067;-62
2023/05/27 02:27:25;;;;;;;23.27;3.50;;;30.10;28.50;;;;;;4889932;29;20195;-64
2023/05/27 02:29:51;;;;;;;23.73;2.90;;;30.10;28.60;;;;;;4887908;29;20072;-61
2023/05/27 02:32:17;;;;;;;16.17;3.42;;;29.90;28.20;;;;;;4887647;29;20066;-62
2023/05/27 02:34:44;;;;;;;16.38;2.80;;;29.80;28.10;;;;;;4888282;29;20117;-64
2023/05/27 02:37:11;;;;;;;13.93;3.22;;;29.80;27.90;;;;;;4888821;29;20538;-63
2023/05/27 02:39:38;;;;;;;18.60;3.30;;;29.70;28.00;;;;;;4888056;29;20717;-63
2023/05/27 02:42:05;;;;;;;37.13;4.38;;;29.60;28.00;;;;;;4888408;29;20097;-61
2023/05/27 02:44:31;;;;;;;13.57;2.88;;;29.50;28.00;;;;;;4889464;29;20530;-62
2023/05/27 02:46:58;;;;;;;8.60;2.83;;;29.50;27.80;;;;;;4890820;29;20318;-59
2023/05/27 02:49:24;;;;;;;26.65;2.92;;;29.40;27.50;;;;;;4888665;29;20125;-64
2023/05/27 02:51:51;;;;;;;21.92;2.90;;;29.30;27.70;;;;;;4892405;29;20558;-63
2023/05/27 02:54:17;;;;;;;26.65;4.13;;;29.20;27.70;;;;;;4889039;29;20586;-65
2023/05/27 02:56:43;;;;;;;15.98;2.85;;;29.20;27.80;;;;;;4888943;29;20096;-63
2023/05/27 02:59:10;;;;;;;12.48;2.53;;;29.10;27.80;;;;;;4888391;29;20069;-63
2023/05/27 03:01:36;;;;;;;10.95;2.78;;;29.00;27.90;;;;;;4891481;29;20555;-62
2023/05/27 03:04:03;;;;;;;11.13;2.88;;;29.00;28.10;;;;;;4891293;29;20073;-64
2023/05/27 03:06:30;;;;;;;16.75;2.30;;;29.00;28.20;;;;;;4890195;29;20625;-64
2023/05/27 03:08:56;;;;;;;15.07;2.90;;;28.90;28.00;;;;;;4890216;29;20150;-62
2023/05/27 03:11:23;;;;;;;11.07;2.53;;;28.90;28.00;;;;;;4888343;29;20156;-64
2023/05/27 03:13:49;;;;;;;14.05;3.35;;;28.80;28.20;;;;;;4891528;29;20527;-64
2023/05/27 03:16:16;;;;;;;19.33;4.00;;;28.70;28.10;;;;;;4893429;29;20092;-63
2023/05/27 03:18:42;;;;;;;12.20;3.25;;;28.70;28.20;;;;;;4890954;29;20099;-63
2023/05/27 03:21:08;;;;;;;16.40;3.45;;;28.60;28.00;;;;;;4889471;29;20083;-61
2023/05/27 03:23:35;;;;;;;15.57;3.45;;;28.60;28.50;;;;;;4891078;29;20086;-61
2023/05/27 03:26:01;;;;;;;14.77;3.30;;;28.60;28.30;;;;;;4892718;29;20190;-63
2023/05/27 03:28:28;;;;;;;20.58;3.50;;;28.50;28.30;;;;;;4891612;29;20139;-61
2023/05/27 03:30:55;;;;;;;16.25;3.58;;;28.50;28.70;;;;;;4890222;29;20081;-61
2023/05/27 03:33:25;;;;;;;14.82;4.38;;;28.50;28.90;;;;;;4887637;29;20444;-63
2023/05/27 03:35:51;;;;;;;15.35;3.65;;;28.20;29.00;;;;;;4889154;29;20148;-61
2023/05/27 03:38:18;;;;;;;20.70;4.10;;;28.30;29.60;;;;;;4888617;29;20615;-63
2023/05/27 03:40:44;;;;;;;50.50;4.55;;;28.30;30.10;;;;;;4889326;29;20552;-63
2023/05/27 03:43:11;;;;;;;25.75;4.15;;;28.20;30.00;;;;;;4886465;29;20159;-62
2023/05/27 03:45:37;;;;;;;18.85;3.90;;;28.10;30.20;;;;;;4887784;29;20105;-63
2023/05/27 03:48:04;;;;;;;11.38;3.88;;;28.10;30.10;;;;;;4889061;29;20413;-64
2023/05/27 03:50:33;;;;;;;10.75;3.42;;;28.00;30.50;;;;;;4886169;29;20118;-61
2023/05/27 03:52:59;;;;;;;18.40;3.13;;;28.00;30.90;;;;;;4889649;29;20103;-62
2023/05/27 03:55:26;;;;;;;15.70;2.92;;;27.90;31.50;;;;;;4886741;29;20512;-61
2023/05/27 03:57:53;;;;;;;10.60;2.97;;;27.90;32.00;;;;;;4890434;29;20626;-62
2023/05/27 04:00:19;;;;;;;11.50;3.20;;;27.80;32.30;;;;;;4890105;29;20085;-62
2023/05/27 04:02:47;;;;;;;9.40;2.83;;;27.70;32.20;;;;;;4888245;29;20131;-61
2023/05/27 04:05:13;;;;;;;18.75;2.67;;;27.60;32.70;;;;;;4888692;29;20142;-63
2023/05/27 04:07:39;;;;;;;10.57;3.00;;;27.60;32.30;;;;;;4887919;29;20243;-61
2023/05/27 04:10:06;;;;;;;19.52;3.63;;;27.40;32.30;;;;;;4890076;29;20086;-62
2023/05/27 04:12:33;;;;;;;10.40;3.67;;;27.40;32.50;;;;;;4888015;29;20067;-63
2023/05/27 04:15:00;;;;;;;13.90;3.60;;;27.30;32.50;;;;;;4888908;29;20502;-63
2023/05/27 04:17:26;;;;;;;13.02;3.92;;;27.10;32.00;;;;;;4889616;29;20080;-62
2023/05/27 04:19:52;;;;;;;16.83;3.60;;;27.10;32.40;;;;;;4887482;29;20838;-61
2023/05/27 04:22:19;;;;;;;9.68;3.38;;;27.10;32.80;;;;;;4886281;29;20089;-62
2023/05/27 04:24:45;;;;;;;10.07;2.80;;;27.00;33.10;;;;;;4893378;29;20086;-62
2023/05/27 04:27:12;;;;;;;12.75;2.90;;;26.90;33.50;;;;;;4888921;29;20430;-62
2023/05/27 04:29:39;;;;;;;15.52;3.20;;;26.90;34.00;;;;;;4890951;29;20080;-58
2023/05/27 04:32:05;;;;;;;11.80;2.83;;;26.90;34.30;;;;;;4890132;29;20116;-61
2023/05/27 04:34:32;;;;;;;14.80;6.53;;;26.80;34.80;;;;;;4890200;29;20067;-61
2023/05/27 04:37:00;;;;;;;10.93;3.45;;;26.70;35.10;;;;;;4886351;29;20104;-61
2023/05/27 04:39:27;;;;;;;20.73;3.72;;;26.60;35.20;;;;;;4889057;29;20091;-62
2023/05/27 04:41:53;;;;;;;12.63;3.10;;;26.50;35.50;;;;;;4888119;29;20084;-62
2023/05/27 04:44:20;;;;;;;16.70;3.47;;;26.40;35.70;;;;;;4888161;29;20072;-62
2023/05/27 04:46:47;;;;;;;13.32;3.20;;;26.30;36.00;;;;;;4888100;29;20575;-63
2023/05/27 04:49:13;;;;;;;8.85;2.80;;;26.30;35.80;;;;;;4888674;29;20083;-62
2023/05/27 04:51:39;;;;;;;49.28;3.20;;;26.20;36.00;;;;;;4889834;29;20075;-63
2023/05/27 04:54:07;;;;;;;13.77;2.95;;;26.10;36.00;;;;;;4889027;29;20460;-62
2023/05/27 04:56:33;;;;;;;8.90;2.53;;;26.10;36.50;;;;;;4887618;29;20092;-63
2023/05/27 04:59:00;;;;;;;8.20;2.53;;;26.00;36.70;;;;;;4886593;29;20067;-62
2023/05/27 05:01:29;;;;;;;6.85;2.92;;;26.00;36.30;;;;;;4888149;29;20115;-62
2023/05/27 05:04:14;;;;;;;9.75;3.15;;;26.00;36.40;;;;;;4886850;29;20167;-61
2023/05/27 05:06:40;;;;;;;9.38;2.50;;;26.00;36.30;;;;;;4889740;29;20182;-63
2023/05/27 05:09:11;;;;;;;15.77;3.05;;;26.00;36.00;;;;;;4888053;29;20123;-62
2023/05/27 05:11:37;;;;;;;18.60;3.05;;;25.90;35.40;;;;;;4886758;29;20079;-61
2023/05/27 05:14:04;;;;;;;8.32;3.22;;;25.90;36.30;;;;;;4888279;29;20456;-61
2023/05/27 05:16:30;;;;;;;10.27;2.90;;;25.80;36.50;;;;;;4888199;29;20076;-61
2023/05/27 05:18:57;;;;;;;14.18;3.30;;;25.60;37.70;;;;;;4888823;29;20522;-62
2023/05/27 05:21:23;;;;;;;14.98;3.20;;;25.70;38.40;;;;;;4886463;29;20076;-62
2023/05/27 05:23:49;;;;;;;9.50;2.70;;;25.60;38.90;;;;;;4887430;29;20076;-61
2023/05/27 05:26:16;;;;;;;20.55;2.92;;;25.50;38.40;;;;;;4887008;29;20100;-61
2023/05/27 05:28:42;;;;;;;15.70;3.47;;;25.50;37.80;;;;;;4887268;29;20559;-62
2023/05/27 05:31:09;;;;;;;8.88;2.45;;;25.50;36.30;;;;;;4889027;29;20114;-61
2023/05/27 05:33:35;;;;;;;10.65;2.90;;;25.40;36.00;;;;;;4890929;29;20075;-61
2023/05/27 05:36:02;;;;;;;16.60;2.83;;;25.30;36.40;;;;;;4891211;29;20095;-62
2023/05/27 05:38:29;;;;;;;13.30;2.92;;;25.30;36.90;;;;;;4887507;29;20126;-62
2023/05/27 05:40:56;;;;;;;10.30;2.80;;;25.30;36.90;;;;;;4887511;29;20088;-63
2023/05/27 05:43:23;;;;;;;12.82;2.75;;;25.30;37.00;;;;;;4887621;29;20095;-62
2023/05/27 05:45:49;;;;;;;12.30;3.10;;;25.20;36.20;;;;;;4888772;29;20093;-63
2023/05/27 05:48:15;;;;;;;32.38;3.95;;;25.10;36.40;;;;;;4890784;29;20690;-61
2023/05/27 05:50:42;;;;;;;16.70;2.95;;;25.10;38.20;;;;;;4891028;29;20462;-61
2023/05/27 05:53:10;;;;;;;8.70;2.85;;;25.00;39.20;;;;;;4890643;29;20662;-61
2023/05/27 05:55:37;;;;;;;15.25;3.60;;;25.00;39.10;;;;;;4887818;29;20155;-59
2023/05/27 05:58:03;;;;;;;14.73;3.10;;;24.90;39.10;;;;;;4888798;29;20097;-62
2023/05/27 06:00:30;;;;;;;11.65;3.50;;;24.80;39.40;;;;;;4889111;29;20154;-61
2023/05/27 06:02:56;;;;;;;22.65;6.70;;;24.50;42.50;;;;;;4891970;29;20068;-64
2023/05/27 06:05:25;;;;;;;49.33;37.72;;;24.30;43.10;;;;;;4890169;29;20444;-66
2023/05/27 06:07:53;;;;;;;13.35;4.80;;;24.30;43.80;;;;;;4891196;29;20088;-61
2023/05/27 06:10:19;;;;;;;8.50;3.08;;;24.20;43.60;;;;;;4890996;29;20064;-61
2023/05/27 06:12:46;;;;;;;8.32;3.25;;;24.20;44.20;;;;;;4887731;29;20084;-61
2023/05/27 06:15:13;;;;;;;16.90;3.47;;;24.10;44.00;;;;;;4892571;29;20518;-61
2023/05/27 06:17:39;;;;;;;12.20;2.95;;;24.10;44.50;;;;;;4891171;29;20087;-62
2023/05/27 06:20:06;;;;;;;21.98;3.40;;;24.00;45.30;;;;;;4891416;29;20107;-59
2023/05/27 06:22:33;;;;;;;14.00;3.08;;;23.90;45.40;;;;;;4893065;29;20079;-61
2023/05/27 06:24:59;;;;;;;11.73;3.40;;;23.70;45.70;;;;;;4890331;29;20452;-59
2023/05/27 06:27:26;;;;;;;13.95;3.08;;;23.80;45.40;;;;;;4902324;23;20247;-62
2023/05/27 06:29:52;;;;;;;14.75;3.17;;;23.60;45.40;;;;;;4924107;29;20099;-62
2023/05/27 06:32:19;;;;;;;24.67;5.75;;;23.50;45.60;;;;;;4929390;29;20082;-62
2023/05/27 06:34:46;;;;;;;14.05;2.97;;;23.50;45.50;;;;;;4921819;29;20079;-61
2023/05/27 06:37:12;;;;;;;13.80;3.28;;;23.40;45.50;;;;;;4928433;29;20083;-61
2023/05/27 06:39:39;;;;;;;13.95;3.83;;;23.50;46.00;;;;;;4923496;29;20075;-64
2023/05/27 06:42:05;;;;;;;11.40;4.70;;;23.50;45.80;;;;;;4929540;29;20094;-60
2023/05/27 06:44:32;;;;;;;12.35;5.35;;;23.60;45.90;;;;;;4927352;29;20087;-63
2023/05/27 06:46:58;;;;;;;11.30;4.88;;;23.60;46.00;;;;;;4927209;29;20194;-64
2023/05/27 06:49:25;;;;;;;12.07;5.22;;;23.50;46.40;;;;;;4928926;29;20529;-63
2023/05/27 06:51:51;;;;;;;10.45;3.15;;;23.50;46.50;;;;;;4932348;28;20095;-62
2023/05/27 06:54:17;;;;;;;10.55;2.90;;;23.40;46.60;;;;;;4928752;29;20097;-62
2023/05/27 06:56:44;;;;;;;13.35;2.72;;;23.50;46.60;;;;;;4921693;29;20118;-64
2023/05/27 06:59:10;;;;;;;23.67;9.50;;;23.40;46.20;;;;;;4909976;29;20438;-63
2023/05/27 07:01:37;;;;;;;23.70;9.90;;;23.50;46.00;;;;;;4908022;29;20082;-63
2023/05/27 07:04:03;;;;;;;11.45;3.53;;;23.40;46.70;;;;;;4908544;29;20087;-63
2023/05/27 07:06:30;;;;;;;11.23;3.22;;;23.40;46.80;;;;;;4908559;29;20091;-63
2023/05/27 07:08:56;;;;;;;12.65;3.25;;;23.50;47.00;;;;;;4906528;29;20072;-63
2023/05/27 07:11:23;;;;;;;15.18;3.80;;;23.50;46.90;;;;;;4902670;29;20079;-64
2023/05/27 07:13:50;;;;;;;15.48;3.17;;;23.40;47.10;;;;;;4906072;29;20071;-63
2023/05/27 07:16:16;;;;;;;11.27;3.50;;;23.40;47.80;;;;;;4905790;29;20128;-65
2023/05/27 07:18:43;;;;;;;15.02;4.25;;;23.40;48.00;;;;;;4903391;29;20533;-65
2023/05/27 07:21:09;;;;;;;29.35;17.05;;;23.20;48.50;;;;;;4903643;29;20155;-63
2023/05/27 07:23:36;;;;;;;27.50;15.48;;;22.90;49.10;;;;;;4904676;29;20456;-64
2023/05/27 07:26:02;;;;;;;29.05;15.30;;;22.80;49.30;;;;;;4904433;29;20095;-64
2023/05/27 07:28:28;;;;;;;13.23;3.63;;;22.60;49.80;;;;;;4904558;29;20219;-64
2023/05/27 07:30:55;;;;;;;16.50;3.53;;;22.70;49.70;;;;;;4903259;29;20076;-63
2023/05/27 07:33:24;;;;;;;11.15;3.30;;;22.80;49.60;;;;;;4904431;29;20095;-64
2023/05/27 07:35:50;;;;;;;10.52;3.58;;;22.70;50.20;;;;;;4903821;29;20646;-64
2023/05/27 07:38:16;;;;;;;8.88;3.20;;;22.50;50.40;;;;;;4905055;29;20083;-64
2023/05/27 07:40:43;;;;;;;13.82;3.55;;;22.50;50.00;;;;;;4904645;29;20079;-64
2023/05/27 07:43:10;;;;;;;11.88;2.90;;;22.50;49.60;;;;;;4903243;29;20067;-64
2023/05/27 07:45:36;;;;;;;6.97;3.08;;;22.50;49.20;;;;;;4904586;29;21005;-64
2023/05/27 07:48:03;;;;;;;18.35;3.33;;;22.40;49.00;;;;;;4909087;29;20523;-64
2023/05/27 07:50:29;;;;;;;12.82;3.10;;;22.40;49.10;;;;;;4907434;29;20083;-64
2023/05/27 07:52:56;;;;;;;10.65;3.30;;;22.30;48.60;;;;;;4908744;29;20114;-66
2023/05/27 07:55:22;;;;;;;9.25;3.22;;;22.30;49.30;;;;;;4906917;29;20078;-64
2023/05/27 07:57:49;;;;;;;10.65;3.15;;;22.20;49.40;;;;;;4907408;29;20106;-64
2023/05/27 08:00:15;;;;;;;8.30;3.20;;;22.20;49.20;;;;;;4908516;29;20480;-63
2023/05/27 08:02:43;;;;;;;9.98;3.35;;;22.10;48.80;;;;;;4907459;29;20190;-64
2023/05/27 08:05:10;;;;;;;13.00;3.67;;;22.10;48.90;;;;;;4908373;29;20083;-65
2023/05/27 08:07:36;;;;;;;12.95;3.78;;;22.10;48.80;;;;;;4909134;29;20091;-62
2023/05/27 08:10:04;;;;;;;8.98;3.28;;;22.10;48.60;;;;;;4907634;29;20153;-65
2023/05/27 08:12:30;;;;;;;10.45;3.50;;;22.10;48.40;;;;;;4907360;29;20071;-64
2023/05/27 08:14:56;;;;;;;11.32;3.13;;;22.00;49.10;;;;;;4909026;29;20079;-65
2023/05/27 08:17:23;;;;;;;9.43;3.47;;;22.10;48.50;;;;;;4907986;29;20074;-64
2023/05/27 08:19:49;;;;;;;13.45;2.85;;;22.10;48.50;;;;;;4907137;29;20080;-65
2023/05/27 08:22:16;;;;;;;9.00;2.97;;;22.20;47.80;;;;;;4905740;29;20099;-63
2023/05/27 08:24:42;;;;;;;14.00;3.17;;;22.20;47.20;;;;;;4908000;29;20107;-64
2023/05/27 08:27:16;;;;;;;11.85;2.90;;;22.30;46.50;;;;;;4908142;29;20102;-63
2023/05/27 08:29:43;;;;;;;13.15;3.05;;;22.30;45.70;;;;;;4909871;29;20112;-63
2023/05/27 08:32:11;;;;;;;6.57;2.72;;;22.30;45.40;;;;;;4908013;29;20075;-63
2023/05/27 08:34:38;;;;;;;8.65;2.85;;;22.30;45.00;;;;;;4907745;29;20094;-65
2023/05/27 08:37:05;;;;;;;8.15;2.70;;;22.30;45.00;;;;;;4906719;29;20091;-64
2023/05/27 08:39:32;;;;;;;8.07;2.97;;;22.40;44.80;;;;;;4907963;29;20075;-64
2023/05/27 08:42:02;;;;;;;8.88;3.05;;;22.40;44.90;;;;;;4905680;29;20094;-64
2023/05/27 08:44:29;;;;;;;11.18;2.60;;;22.30;44.50;;;;;;4906114;29;20079;-64
2023/05/27 08:46:56;;;;;;;11.10;2.70;;;22.40;44.50;;;;;;4909325;29;20135;-62
2023/05/27 08:49:23;;;;;;;6.30;2.60;;;22.40;44.20;;;;;;4909832;29;20083;-62
2023/05/27 08:51:51;;;;;;;9.57;3.05;;;22.40;44.00;;;;;;4910094;29;20122;-63
2023/05/27 08:54:18;;;;;;;9.60;2.72;;;22.40;44.10;;;;;;4909007;29;20151;-65
2023/05/27 08:56:46;;;;;;;7.38;2.67;;;22.40;43.50;;;;;;4908224;29;20579;-63
2023/05/27 08:59:13;;;;;;;6.03;2.60;;;22.40;43.50;;;;;;4905746;29;20162;-62
2023/05/27 09:01:40;;;;;;;7.93;2.53;;;22.40;43.30;;;;;;4905923;29;20071;-63
2023/05/27 09:04:07;;;;;;;15.43;2.90;;;22.30;43.50;;;;;;4907434;29;20085;-65
2023/05/27 09:06:33;;;;;;;8.23;3.00;;;22.40;43.90;;;;;;4905805;29;20107;-63
2023/05/27 09:09:00;;;;;;;9.98;2.60;;;22.30;43.90;;;;;;4907596;29;20079;-62
2023/05/27 09:11:34;;;;;;;10.77;2.88;;;22.40;43.60;;;;;;4907337;29;20966;-62
2023/05/27 09:14:00;;;;;;;10.73;2.90;;;22.40;43.80;;;;;;4907553;29;20072;-64
2023/05/27 09:16:26;;;;;;;8.20;2.90;;;22.40;43.80;;;;;;4908805;29;20127;-63
2023/05/27 09:18:53;;;;;;;5.82;2.53;;;22.30;43.60;;;;;;4905370;29;20739;-64
2023/05/27 09:21:19;;;;;;;7.97;2.80;;;22.40;43.70;;;;;;4905532;29;20079;-64
2023/05/27 09:23:46;;;;;;;6.68;3.67;;;22.40;43.80;;;;;;4907196;29;20158;-63
2023/05/27 09:26:13;;;;;;;10.18;3.22;;;22.30;43.90;;;;;;4908037;29;21337;-64
2023/05/27 09:28:40;;;;;;;9.52;3.33;;;22.20;44.10;;;;;;4906452;29;20115;-64
2023/05/27 09:31:08;;;;;;;8.15;3.03;;;22.20;44.20;;;;;;4905800;29;20067;-63
2023/05/27 09:33:38;;;;;;;6.30;2.78;;;22.20;44.50;;;;;;4907625;29;20547;-62
2023/05/27 09:36:06;;;;;;;6.40;2.47;;;22.20;44.30;;;;;;4909278;29;20076;-64
2023/05/27 09:38:33;;;;;;;8.90;3.50;;;22.10;43.90;;;;;;4908992;29;20686;-64
2023/05/27 09:41:00;;;;;;;8.90;3.13;;;22.10;43.70;;;;;;4906979;29;20075;-63
2023/05/27 09:43:27;;;;;;;7.07;2.95;;;22.10;43.90;;;;;;4910514;29;20167;-62
2023/05/27 09:46:01;;;;;;;6.90;2.72;;;22.20;43.90;;;;;;4911381;29;20067;-63
2023/05/27 09:48:33;;;;;;;10.00;2.83;;;22.20;43.70;;;;;;4909232;29;20131;-64
2023/05/27 09:51:03;;;;;;;4.68;2.30;;;22.30;43.70;;;;;;4909061;29;20131;-64
2023/05/27 09:53:32;;;;;;;8.20;2.30;;;22.20;43.80;;;;;;4911888;29;20091;-65
2023/05/27 09:55:59;;;;;;;10.13;2.30;;;22.20;44.10;;;;;;4911913;29;20651;-65
2023/05/27 09:58:25;;;;;;;6.50;2.47;;;22.20;44.30;;;;;;4909848;29;20092;-65
2023/05/27 10:00:53;;;;;;;11.57;2.35;;;22.10;45.00;;;;;;4911242;29;20094;-64
2023/05/27 10:03:27;;;;;;;10.30;2.50;;;22.10;44.40;;;;;;4908573;29;20139;-65
2023/05/27 10:05:55;;;;;;;6.55;2.67;;;22.10;44.00;;;;;;4910280;29;20091;-65
2023/05/27 10:08:22;;;;;;;5.22;2.75;;;22.10;43.90;;;;;;4911128;29;20095;-65
2023/05/27 10:10:49;;;;;;;5.53;2.35;;;22.00;43.90;;;;;;4909516;29;20076;-64
2023/05/27 10:13:18;;;;;;;6.32;2.75;;;22.00;43.50;;;;;;4906948;29;20106;-64
2023/05/27 10:15:51;;;;;;;8.48;3.00;;;21.90;43.20;;;;;;4910164;29;20079;-65
2023/05/27 10:18:29;;;;;;;12.55;2.53;;;22.00;43.70;;;;;;4908977;29;20126;-64
2023/05/27 10:20:58;;;;;;;11.95;3.10;;;22.00;43.10;;;;;;4907717;29;20068;-64
2023/05/27 10:23:31;;;;;;;10.73;2.72;;;22.00;42.50;;;;;;4910482;29;20063;-65
2023/05/27 10:26:04;;;;;;;12.93;2.80;;;22.10;42.00;;;;;;4909936;29;20182;-64
2023/05/27 10:28:39;;;;;;;10.93;2.50;;;22.10;41.80;;;;;;4909408;29;20108;-66
2023/05/27 10:31:08;;;;;;;6.45;2.28;;;22.10;41.40;;;;;;4908167;29;20086;-64
2023/05/27 10:33:36;;;;;;;5.07;2.20;;;22.10;41.00;;;;;;4907871;29;20074;-64
2023/05/27 10:36:31;;;;;;;5.43;2.20;;;22.10;41.40;;;;;;4911182;29;20080;-63
2023/05/27 10:39:04;;;;;;;8.30;2.60;;;22.10;41.90;;;;;;4908908;29;20144;-65
2023/05/27 10:41:42;;;;;;;9.25;2.42;;;22.10;41.90;;;;;;4908869;29;20139;-64
2023/05/27 10:44:10;;;;;;;11.50;2.60;;;22.10;42.10;;;;;;4909918;29;20072;-64
2023/05/27 10:46:43;;;;;;;2.83;1.90;;;22.10;42.20;;;;;;4911681;29;20174;-64
2023/05/27 10:49:35;;;;;;;6.88;2.80;;;22.10;42.60;;;;;;4908666;29;20078;-63
2023/05/27 10:52:15;;;;;;;7.00;2.88;;;21.90;44.40;;;;;;4911294;29;20076;-64
2023/05/27 10:54:45;;;;;;;7.97;2.63;;;21.90;45.20;;;;;;4908624;29;20155;-63
2023/05/27 10:57:12;;;;;;;7.30;2.88;;;21.80;46.00;;;;;;4909961;29;20140;-62
2023/05/27 10:59:44;;;;;;;7.78;2.63;;;21.60;47.30;;;;;;4913149;29;20440;-63
2023/05/27 11:02:12;;;;;;;6.05;2.85;;;21.60;47.10;;;;;;4909841;29;20076;-65
2023/05/27 11:04:38;;;;;;;4.88;2.53;;;21.60;47.10;;;;;;4908933;29;20101;-63
2023/05/27 11:07:05;;;;;;;10.85;2.67;;;21.60;47.10;;;;;;4912052;29;20118;-66
2023/05/27 11:09:52;;;;;;;7.35;2.65;;;21.60;47.30;;;;;;4909949;29;20075;-65
2023/05/27 11:12:20;;;;;;;5.72;2.58;;;21.40;47.50;;;;;;4909737;29;20071;-64
2023/05/27 11:14:56;;;;;;;13.10;3.30;;;21.40;48.00;;;;;;4910331;29;20075;-65
2023/05/27 11:17:23;;;;;;;14.63;3.17;;;21.20;49.20;;;;;;4910160;29;20166;-65
2023/05/27 11:19:49;;;;;;;11.07;3.30;;;20.90;50.90;;;;;;4909014;29;20425;-63
2023/05/27 11:22:17;;;;;;;10.73;3.47;;;20.80;51.10;;;;;;4908737;29;20079;-65
2023/05/27 11:24:55;;;;;;;9.40;3.65;;;20.90;51.50;;;;;;4907681;29;20417;-64
2023/05/27 11:27:21;;;;;;;11.02;3.67;;;20.90;51.60;;;;;;4910242;29;20087;-64
2023/05/27 11:29:52;;;;;;;9.65;3.70;;;20.90;51.30;;;;;;4907493;29;20108;-65
2023/05/27 11:32:20;;;;;;;13.50;3.30;;;20.80;52.00;;;;;;4906871;29;20143;-64
2023/05/27 11:34:47;;;;;;;12.90;3.55;;;20.70;52.80;;;;;;4909568;29;20123;-66
2023/05/27 11:37:14;;;;;;;11.00;3.47;;;20.70;52.90;;;;;;4912008;29;20076;-65
2023/05/27 11:39:53;;;;;;;23.23;3.95;;;20.70;52.50;;;;;;4910040;29;20071;-64
2023/05/27 11:42:23;;;;;;;119.97;8.40;;;20.70;52.60;;;;;;4906483;29;20080;-64
2023/05/27 11:44:54;;;;;;;39.85;4.72;;;20.60;52.60;;;;;;4909453;29;20078;-65
2023/05/27 11:47:21;;;;;;;14.65;3.55;;;20.50;52.60;;;;;;4909719;29;20158;-65
2023/05/27 11:49:49;;;;;;;11.02;2.85;;;20.50;53.00;;;;;;4908721;29;20072;-63
2023/05/27 11:52:16;;;;;;;8.10;3.38;;;20.20;53.90;;;;;;4910965;29;20060;-64
2023/05/27 11:54:42;;;;;;;14.05;3.40;;;20.10;54.70;;;;;;4909519;29;20111;-63
2023/05/27 11:57:10;;;;;;;12.48;3.90;;;20.30;54.80;;;;;;4908051;29;20110;-66
2023/05/27 11:59:40;;;;;;;27.08;4.05;;;20.30;54.60;;;;;;4908263;29;20083;-62
2023/05/27 12:02:07;;;;;;;9.38;3.30;;;20.10;54.70;;;;;;4907980;29;20091;-64
2023/05/27 12:04:33;;;;;;;10.75;3.67;;;20.10;55.40;;;;;;4908708;29;20603;-65
2023/05/27 12:07:02;;;;;;;8.98;3.40;;;20.10;55.10;;;;;;4907280;29;20099;-65
2023/05/27 12:09:29;;;;;;;10.05;3.47;;;20.00;55.00;;;;;;4907793;29;20151;-65
2023/05/27 12:11:55;;;;;;;10.35;3.70;;;19.90;54.90;;;;;;4908556;29;20080;-65
2023/05/27 12:14:22;;;;;;;12.75;4.10;;;20.00;55.10;;;;;;4907576;29;20485;-64
2023/05/27 12:16:50;;;;;;;16.00;3.72;;;20.00;56.30;;;;;;4908921;29;20080;-66
2023/05/27 12:19:16;;;;;;;14.95;3.63;;;20.00;55.60;;;;;;4908303;29;20080;-63
2023/05/27 12:21:43;;;;;;;9.15;3.67;;;20.00;55.70;;;;;;4909545;29;20071;-64
2023/05/27 12:24:09;;;;;;;11.18;3.20;;;20.00;55.60;;;;;;4908471;29;20136;-66
2023/05/27 12:26:37;;;;;;;12.55;3.42;;;19.90;55.40;;;;;;4904115;29;20611;-64
2023/05/27 12:29:03;;;;;;;11.23;3.40;;;19.90;56.70;;;;;;4907662;29;20115;-66
2023/05/27 12:31:29;;;;;;;11.82;3.38;;;19.90;55.70;;;;;;4906080;29;20098;-65
2023/05/27 12:33:56;;;;;;;17.17;3.97;;;19.90;55.60;;;;;;4908663;29;20079;-65
2023/05/27 12:36:22;;;;;;;13.93;3.85;;;19.90;55.70;;;;;;4907845;29;20158;-65
2023/05/27 12:38:49;;;;;;;10.20;3.08;;;19.90;55.60;;;;;;4909507;29;20110;-65
2023/05/27 12:41:15;;;;;;;14.35;3.75;;;19.90;56.30;;;;;;4908043;29;20079;-66